Pilot Boat Minera I — HKFH6 — position and weather

sailwx.info

Track history (hours):
 
Tides and Currents Weather Stations Pressure Air Temp Water Temp Dewpoint Dewpoint Depression Visibility Wind Speed Wind Dir Waves Ship Positions

Pilot Boat Minera I

Last reported at 2018-Jan-27 20:08 UTC. Time now 2018-Feb-21 23:28 UTC.
Position N 10°22' W 075°31'.
Warning: this ship's position is 25 days out of date.

Length 11 m.

Type: Pilot. MMSI: 730114000.

Date/timePositionNaut miles runAvg speedWind from/ knotsBaromVisibWave heightAir tempDewpointWater temp
2018-Jan-27 20:08N 10°22' W 075°31'0 0.0
2018-Jan-27 19:53N 10°22' W 075°31'0 0.0
2018-Jan-25 20:19N 10°22' W 075°31'  
2018-Jan-21 11:05N 10°19' W 075°35'0 0.3
2018-Jan-21 10:53N 10°19' W 075°35'0 0.0
2018-Jan-21 10:29N 10°19' W 075°35'0 0.1
2018-Jan-21 09:55N 10°19' W 075°35'0 0.0
2018-Jan-21 09:25N 10°19' W 075°35'0 0.0
2018-Jan-21 08:58N 10°19' W 075°35'0 0.0
2018-Jan-21 08:30N 10°19' W 075°35'0 0.1
2018-Jan-21 08:00N 10°19' W 075°35'0 0.0
2018-Jan-21 06:40N 10°19' W 075°35'0 0.0
2018-Jan-21 06:28N 10°19' W 075°35'0 0.3
2018-Jan-21 05:35N 10°19' W 075°35'0 4.5
2018-Jan-21 05:30N 10°19' W 075°35'0 0.0
2018-Jan-21 04:55N 10°19' W 075°35'0 0.0
2018-Jan-21 04:25N 10°19' W 075°35'0 0.0
2018-Jan-21 03:52N 10°19' W 075°35'0 0.0
2018-Jan-21 03:30N 10°19' W 075°35'0 0.1
2018-Jan-21 02:58N 10°19' W 075°35'0 0.0
2018-Jan-21 02:28N 10°19' W 075°35'0 0.0
2018-Jan-21 01:55N 10°19' W 075°35'0 0.0
2018-Jan-21 01:24N 10°19' W 075°35'0 0.1
2018-Jan-21 00:53N 10°19' W 075°35'0 0.3
2018-Jan-21 00:26N 10°19' W 075°35'0 0.1
2018-Jan-20 23:24N 10°19' W 075°35'0 0.0
2018-Jan-20 22:57N 10°19' W 075°35'0 0.4
2018-Jan-20 22:25N 10°19' W 075°35'0 0.0
2018-Jan-20 21:55N 10°19' W 075°35'0 0.0
2018-Jan-20 21:25N 10°19' W 075°35'6 5.3
2018-Jan-20 20:14N 10°25' W 075°32'618.7
2018-Jan-20 19:54N 10°19' W 075°35'0 0.2
2018-Jan-20 19:13N 10°19' W 075°35'0 0.0
2018-Jan-20 18:55N 10°19' W 075°35'0 0.1
2018-Jan-20 16:30N 10°19' W 075°35'2 3.6
2018-Jan-20 15:50N 10°19' W 075°37'3 5.5
2018-Jan-20 15:22N 10°19' W 075°35'0 1.0
2018-Jan-20 14:59N 10°19' W 075°35'0 0.8
2018-Jan-20 14:28N 10°19' W 075°35'0 0.0
2018-Jan-20 13:46N 10°19' W 075°35'0 0.8
2018-Jan-20 13:19N 10°19' W 075°35'2 4.1
2018-Jan-20 12:51N 10°19' W 075°37'0 0.6
2018-Jan-20 12:29N 10°19' W 075°37'2 3.5
2018-Jan-20 11:54N 10°19' W 075°35'1 3.0
2018-Jan-20 11:29N 10°19' W 075°36'1 2.7
2018-Jan-20 10:59N 10°19' W 075°35'0 0.0
2018-Jan-20 10:29N 10°19' W 075°35'0 0.0
2018-Jan-20 09:59N 10°19' W 075°35'1 2.7
2018-Jan-20 09:30N 10°19' W 075°36'1 2.5
2018-Jan-20 09:00N 10°19' W 075°35'0 0.1
2018-Jan-20 08:27N 10°19' W 075°35'0 0.0
2018-Jan-20 07:57N 10°19' W 075°35'0 0.0
2018-Jan-20 07:30N 10°19' W 075°35'0 0.0
2018-Jan-20 06:57N 10°19' W 075°35'0 0.0
2018-Jan-20 06:27N 10°19' W 075°35'0 0.0
2018-Jan-20 05:57N 10°19' W 075°35'0 0.0
2018-Jan-20 05:30N 10°19' W 075°35'0 0.0
2018-Jan-20 04:57N 10°19' W 075°35'0 0.0
2018-Jan-20 04:27N 10°19' W 075°35'0 0.0
2018-Jan-20 03:57N 10°19' W 075°35'0 0.0
2018-Jan-20 03:27N 10°19' W 075°35'0 0.0
2018-Jan-20 02:57N 10°19' W 075°35'0 0.0
2018-Jan-20 02:27N 10°19' W 075°35'0 0.0
2018-Jan-20 01:57N 10°19' W 075°35'0 0.0
2018-Jan-20 01:27N 10°19' W 075°35'0 0.0
2018-Jan-19 22:08N 10°19' W 075°35'0 0.6
2018-Jan-19 21:56N 10°19' W 075°35'0 0.3
2018-Jan-19 21:26N 10°19' W 075°35'0 0.0
2018-Jan-19 20:59N 10°19' W 075°35'0 0.0
2018-Jan-19 20:29N 10°19' W 075°35'0 0.0
2018-Jan-19 19:59N 10°19' W 075°35'1 2.5
2018-Jan-19 19:30N 10°19' W 075°36'2 3.0
2018-Jan-19 19:00N 10°19' W 075°34'5 1.8
2018-Jan-19 16:17N 10°22' W 075°31'1 2.0
2018-Jan-19 15:51N 10°22' W 075°31'0 0.1
2018-Jan-19 13:39N 10°22' W 075°31'426.9
2018-Jan-19 13:30N 10°19' W 075°35'0 0.1
2018-Jan-19 12:58N 10°19' W 075°35'0 0.0
2018-Jan-19 12:28N 10°19' W 075°35'0 0.0
2018-Jan-19 11:58N 10°19' W 075°35'0 0.0
2018-Jan-19 11:22N 10°19' W 075°35'2 6.0
2018-Jan-19 11:00N 10°19' W 075°37'2 4.5
2018-Jan-19 10:29N 10°19' W 075°35'0 0.0
2018-Jan-19 09:59N 10°19' W 075°35'0 0.0
2018-Jan-19 09:26N 10°19' W 075°35'0 0.0
2018-Jan-19 08:56N 10°19' W 075°35'0 0.0
2018-Jan-19 08:29N 10°19' W 075°35'0 0.0
2018-Jan-19 07:59N 10°19' W 075°35'0 0.0
2018-Jan-19 07:26N 10°19' W 075°35'0 0.0
2018-Jan-19 06:56N 10°19' W 075°35'1 2.9
2018-Jan-19 06:28N 10°19' W 075°36'1 2.8
2018-Jan-19 06:00N 10°19' W 075°35'0 0.0
2018-Jan-19 05:30N 10°19' W 075°35'0 0.0
2018-Jan-19 05:00N 10°19' W 075°35'0 0.0
2018-Jan-19 04:30N 10°19' W 075°35'0 0.0
2018-Jan-19 04:00N 10°19' W 075°35'0 0.0
2018-Jan-19 03:30N 10°19' W 075°35'0 0.0
2018-Jan-19 03:00N 10°19' W 075°35'0 0.0
2018-Jan-19 02:30N 10°19' W 075°35'0 0.0
2018-Jan-19 02:00N 10°19' W 075°35'0 0.0
2018-Jan-19 01:30N 10°19' W 075°35'0 0.0
2018-Jan-19 01:00N 10°19' W 075°35'0 0.0
2018-Jan-19 00:30N 10°19' W 075°35'0 0.1
2018-Jan-18 23:12N 10°19' W 075°35'0 0.0
2018-Jan-18 22:57N 10°19' W 075°35'0 0.2
2018-Jan-18 22:30N 10°19' W 075°35'0 0.2
2018-Jan-18 21:49N 10°19' W 075°35'6 6.0
2018-Jan-18 20:48N 10°25' W 075°32'619.8
2018-Jan-18 20:30N 10°19' W 075°34'0 0.8
2018-Jan-18 20:00N 10°19' W 075°35'0 0.0
2018-Jan-18 19:06N 10°19' W 075°35'0 0.0
2018-Jan-18 19:00N 10°19' W 075°35'0 0.0
2018-Jan-18 18:30N 10°19' W 075°35'0 0.0
2018-Jan-18 18:00N 10°19' W 075°35'0 0.0
2018-Jan-18 17:30N 10°19' W 075°35'0 0.0
2018-Jan-18 16:57N 10°19' W 075°35'0 0.0
2018-Jan-18 16:30N 10°19' W 075°35'0 0.0
2018-Jan-18 16:00N 10°19' W 075°35'0 0.0
2018-Jan-18 15:18N 10°19' W 075°35'0 0.0
2018-Jan-18 14:48N 10°19' W 075°35'0 0.0
2018-Jan-18 14:24N 10°19' W 075°35'2 4.8
2018-Jan-18 14:00N 10°19' W 075°33'3 6.3
2018-Jan-18 13:30N 10°19' W 075°36'1 1.1
2018-Jan-18 12:19N 10°19' W 075°35'0 0.0
2018-Jan-18 11:55N 10°19' W 075°35'3 5.7
2018-Jan-18 11:29N 10°19' W 075°37'3 4.8
2018-Jan-18 10:57N 10°19' W 075°35'0 0.0
2018-Jan-18 10:27N 10°19' W 075°35'0 0.0
2018-Jan-18 09:57N 10°19' W 075°35'0 0.0
2018-Jan-18 09:24N 10°19' W 075°35'0 0.0
2018-Jan-18 09:00N 10°19' W 075°35'0 0.0
2018-Jan-18 08:30N 10°19' W 075°35'0 0.0
2018-Jan-18 08:00N 10°19' W 075°35'0 0.0
2018-Jan-18 07:27N 10°19' W 075°35'0 0.0
2018-Jan-18 07:00N 10°19' W 075°35'0 0.2
2018-Jan-18 06:27N 10°19' W 075°35'0 0.0
2018-Jan-18 06:00N 10°19' W 075°35'0 0.0
2018-Jan-18 05:27N 10°19' W 075°35'0 0.0
2018-Jan-18 04:57N 10°19' W 075°35'0 0.0
2018-Jan-18 04:30N 10°19' W 075°35'0 0.0
2018-Jan-18 04:00N 10°19' W 075°35'0 0.0
2018-Jan-18 03:30N 10°19' W 075°35'0 0.0
2018-Jan-18 03:00N 10°19' W 075°35'0 0.0
2018-Jan-18 02:27N 10°19' W 075°35'0 0.0
2018-Jan-18 01:33N 10°19' W 075°35'0 0.0
2018-Jan-18 01:30N 10°19' W 075°35'0 0.0
2018-Jan-18 00:45N 10°19' W 075°35'0 0.0
2018-Jan-17 23:57N 10°19' W 075°35'  
Track history (hours):
 
Tides and Currents Weather Stations Pressure Air Temp Water Temp Dewpoint Dewpoint Depression Visibility Wind Speed Wind Dir Waves Ship Positions

Pilot Boat Minera I

Last reported at 2018-Jan-27 20:08 UTC. Time now 2018-Feb-21 23:28 UTC.
Position N 10°22' W 075°31'.
Warning: this ship's position is 25 days out of date.

Length 11 m.

Type: Pilot. MMSI: 730114000.

Date/timePositionNaut miles runAvg speedWind from/ knotsBaromVisibWave heightAir tempDewpointWater temp
2018-Jan-27 20:08N 10°22' W 075°31'0 0.0
2018-Jan-27 19:53N 10°22' W 075°31'0 0.0
2018-Jan-25 20:19N 10°22' W 075°31'  
2018-Jan-21 11:05N 10°19' W 075°35'0 0.3
2018-Jan-21 10:53N 10°19' W 075°35'0 0.0
2018-Jan-21 10:29N 10°19' W 075°35'0 0.1
2018-Jan-21 09:55N 10°19' W 075°35'0 0.0
2018-Jan-21 09:25N 10°19' W 075°35'0 0.0
2018-Jan-21 08:58N 10°19' W 075°35'0 0.0
2018-Jan-21 08:30N 10°19' W 075°35'0 0.1
2018-Jan-21 08:00N 10°19' W 075°35'0 0.0
2018-Jan-21 06:40N 10°19' W 075°35'0 0.0
2018-Jan-21 06:28N 10°19' W 075°35'0 0.3
2018-Jan-21 05:35N 10°19' W 075°35'0 4.5
2018-Jan-21 05:30N 10°19' W 075°35'0 0.0
2018-Jan-21 04:55N 10°19' W 075°35'0 0.0
2018-Jan-21 04:25N 10°19' W 075°35'0 0.0
2018-Jan-21 03:52N 10°19' W 075°35'0 0.0
2018-Jan-21 03:30N 10°19' W 075°35'0 0.1
2018-Jan-21 02:58N 10°19' W 075°35'0 0.0
2018-Jan-21 02:28N 10°19' W 075°35'0 0.0
2018-Jan-21 01:55N 10°19' W 075°35'0 0.0
2018-Jan-21 01:24N 10°19' W 075°35'0 0.1
2018-Jan-21 00:53N 10°19' W 075°35'0 0.3
2018-Jan-21 00:26N 10°19' W 075°35'0 0.1
2018-Jan-20 23:24N 10°19' W 075°35'0 0.0
2018-Jan-20 22:57N 10°19' W 075°35'0 0.4
2018-Jan-20 22:25N 10°19' W 075°35'0 0.0
2018-Jan-20 21:55N 10°19' W 075°35'0 0.0
2018-Jan-20 21:25N 10°19' W 075°35'6 5.3
2018-Jan-20 20:14N 10°25' W 075°32'618.7
2018-Jan-20 19:54N 10°19' W 075°35'0 0.2
2018-Jan-20 19:13N 10°19' W 075°35'0 0.0
2018-Jan-20 18:55N 10°19' W 075°35'0 0.1
2018-Jan-20 16:30N 10°19' W 075°35'2 3.6
2018-Jan-20 15:50N 10°19' W 075°37'3 5.5
2018-Jan-20 15:22N 10°19' W 075°35'0 1.0
2018-Jan-20 14:59N 10°19' W 075°35'0 0.8
2018-Jan-20 14:28N 10°19' W 075°35'0 0.0
2018-Jan-20 13:46N 10°19' W 075°35'0 0.8
2018-Jan-20 13:19N 10°19' W 075°35'2 4.1
2018-Jan-20 12:51N 10°19' W 075°37'0 0.6
2018-Jan-20 12:29N 10°19' W 075°37'2 3.5
2018-Jan-20 11:54N 10°19' W 075°35'1 3.0
2018-Jan-20 11:29N 10°19' W 075°36'1 2.7
2018-Jan-20 10:59N 10°19' W 075°35'0 0.0
2018-Jan-20 10:29N 10°19' W 075°35'0 0.0
2018-Jan-20 09:59N 10°19' W 075°35'1 2.7
2018-Jan-20 09:30N 10°19' W 075°36'1 2.5
2018-Jan-20 09:00N 10°19' W 075°35'0 0.1
2018-Jan-20 08:27N 10°19' W 075°35'0 0.0
2018-Jan-20 07:57N 10°19' W 075°35'0 0.0
2018-Jan-20 07:30N 10°19' W 075°35'0 0.0
2018-Jan-20 06:57N 10°19' W 075°35'0 0.0
2018-Jan-20 06:27N 10°19' W 075°35'0 0.0
2018-Jan-20 05:57N 10°19' W 075°35'0 0.0
2018-Jan-20 05:30N 10°19' W 075°35'0 0.0
2018-Jan-20 04:57N 10°19' W 075°35'0 0.0
2018-Jan-20 04:27N 10°19' W 075°35'0 0.0
2018-Jan-20 03:57N 10°19' W 075°35'0 0.0
2018-Jan-20 03:27N 10°19' W 075°35'0 0.0
2018-Jan-20 02:57N 10°19' W 075°35'0 0.0
2018-Jan-20 02:27N 10°19' W 075°35'0 0.0
2018-Jan-20 01:57N 10°19' W 075°35'0 0.0
2018-Jan-20 01:27N 10°19' W 075°35'0 0.0
2018-Jan-19 22:08N 10°19' W 075°35'0 0.6
2018-Jan-19 21:56N 10°19' W 075°35'0 0.3
2018-Jan-19 21:26N 10°19' W 075°35'0 0.0
2018-Jan-19 20:59N 10°19' W 075°35'0 0.0
2018-Jan-19 20:29N 10°19' W 075°35'0 0.0
2018-Jan-19 19:59N 10°19' W 075°35'1 2.5
2018-Jan-19 19:30N 10°19' W 075°36'2 3.0
2018-Jan-19 19:00N 10°19' W 075°34'5 1.8
2018-Jan-19 16:17N 10°22' W 075°31'1 2.0
2018-Jan-19 15:51N 10°22' W 075°31'0 0.1
2018-Jan-19 13:39N 10°22' W 075°31'426.9
2018-Jan-19 13:30N 10°19' W 075°35'0 0.1
2018-Jan-19 12:58N 10°19' W 075°35'0 0.0
2018-Jan-19 12:28N 10°19' W 075°35'0 0.0
2018-Jan-19 11:58N 10°19' W 075°35'0 0.0
2018-Jan-19 11:22N 10°19' W 075°35'2 6.0
2018-Jan-19 11:00N 10°19' W 075°37'2 4.5
2018-Jan-19 10:29N 10°19' W 075°35'0 0.0
2018-Jan-19 09:59N 10°19' W 075°35'0 0.0
2018-Jan-19 09:26N 10°19' W 075°35'0 0.0
2018-Jan-19 08:56N 10°19' W 075°35'0 0.0
2018-Jan-19 08:29N 10°19' W 075°35'0 0.0
2018-Jan-19 07:59N 10°19' W 075°35'0 0.0
2018-Jan-19 07:26N 10°19' W 075°35'0 0.0
2018-Jan-19 06:56N 10°19' W 075°35'1 2.9
2018-Jan-19 06:28N 10°19' W 075°36'1 2.8
2018-Jan-19 06:00N 10°19' W 075°35'0 0.0
2018-Jan-19 05:30N 10°19' W 075°35'0 0.0
2018-Jan-19 05:00N 10°19' W 075°35'0 0.0
2018-Jan-19 04:30N 10°19' W 075°35'0 0.0
2018-Jan-19 04:00N 10°19' W 075°35'0 0.0
2018-Jan-19 03:30N 10°19' W 075°35'0 0.0
2018-Jan-19 03:00N 10°19' W 075°35'0 0.0
2018-Jan-19 02:30N 10°19' W 075°35'0 0.0
2018-Jan-19 02:00N 10°19' W 075°35'0 0.0
2018-Jan-19 01:30N 10°19' W 075°35'0 0.0
2018-Jan-19 01:00N 10°19' W 075°35'0 0.0
2018-Jan-19 00:30N 10°19' W 075°35'0 0.1
2018-Jan-18 23:12N 10°19' W 075°35'0 0.0
2018-Jan-18 22:57N 10°19' W 075°35'0 0.2
2018-Jan-18 22:30N 10°19' W 075°35'0 0.2
2018-Jan-18 21:49N 10°19' W 075°35'6 6.0
2018-Jan-18 20:48N 10°25' W 075°32'619.8
2018-Jan-18 20:30N 10°19' W 075°34'0 0.8
2018-Jan-18 20:00N 10°19' W 075°35'0 0.0
2018-Jan-18 19:06N 10°19' W 075°35'0 0.0
2018-Jan-18 19:00N 10°19' W 075°35'0 0.0
2018-Jan-18 18:30N 10°19' W 075°35'0 0.0
2018-Jan-18 18:00N 10°19' W 075°35'0 0.0
2018-Jan-18 17:30N 10°19' W 075°35'0 0.0
2018-Jan-18 16:57N 10°19' W 075°35'0 0.0
2018-Jan-18 16:30N 10°19' W 075°35'0 0.0
2018-Jan-18 16:00N 10°19' W 075°35'0 0.0
2018-Jan-18 15:18N 10°19' W 075°35'0 0.0
2018-Jan-18 14:48N 10°19' W 075°35'0 0.0
2018-Jan-18 14:24N 10°19' W 075°35'2 4.8
2018-Jan-18 14:00N 10°19' W 075°33'3 6.3
2018-Jan-18 13:30N 10°19' W 075°36'1 1.1
2018-Jan-18 12:19N 10°19' W 075°35'0 0.0
2018-Jan-18 11:55N 10°19' W 075°35'3 5.7
2018-Jan-18 11:29N 10°19' W 075°37'3 4.8
2018-Jan-18 10:57N 10°19' W 075°35'0 0.0
2018-Jan-18 10:27N 10°19' W 075°35'0 0.0
2018-Jan-18 09:57N 10°19' W 075°35'0 0.0
2018-Jan-18 09:24N 10°19' W 075°35'0 0.0
2018-Jan-18 09:00N 10°19' W 075°35'0 0.0
2018-Jan-18 08:30N 10°19' W 075°35'0 0.0
2018-Jan-18 08:00N 10°19' W 075°35'0 0.0
2018-Jan-18 07:27N 10°19' W 075°35'0 0.0
2018-Jan-18 07:00N 10°19' W 075°35'0 0.2
2018-Jan-18 06:27N 10°19' W 075°35'0 0.0
2018-Jan-18 06:00N 10°19' W 075°35'0 0.0
2018-Jan-18 05:27N 10°19' W 075°35'0 0.0
2018-Jan-18 04:57N 10°19' W 075°35'0 0.0
2018-Jan-18 04:30N 10°19' W 075°35'0 0.0
2018-Jan-18 04:00N 10°19' W 075°35'0 0.0
2018-Jan-18 03:30N 10°19' W 075°35'0 0.0
2018-Jan-18 03:00N 10°19' W 075°35'0 0.0
2018-Jan-18 02:27N 10°19' W 075°35'0 0.0
2018-Jan-18 01:33N 10°19' W 075°35'0 0.0
2018-Jan-18 01:30N 10°19' W 075°35'0 0.0
2018-Jan-18 00:45N 10°19' W 075°35'0 0.0
2018-Jan-17 23:57N 10°19' W 075°35'  

Dump ship's entire track history